createdAt,value
2023-01-08T00:01:14.703Z,9.38
2023-01-08T00:03:45.503Z,8.23
2023-01-08T00:06:21.511Z,9.38
2023-01-08T00:08:51.965Z,11.27
2023-01-08T00:11:21.869Z,9.73
2023-01-08T00:13:51.824Z,9.60
2023-01-08T00:16:21.478Z,9.35
2023-01-08T00:18:51.491Z,9.00
2023-01-08T00:21:21.205Z,12.35
2023-01-08T00:23:51.251Z,8.90
2023-01-08T00:26:21.113Z,10.75
2023-01-08T00:28:51.043Z,12.68
2023-01-08T00:31:21.255Z,12.43
2023-01-08T00:33:50.815Z,11.35
2023-01-08T00:36:20.865Z,10.73
2023-01-08T00:38:50.977Z,8.82
2023-01-08T00:41:20.769Z,13.00
2023-01-08T00:43:50.547Z,10.05
2023-01-08T00:46:20.558Z,10.50
2023-01-08T00:48:50.408Z,10.43
2023-01-08T00:51:20.131Z,11.57
2023-01-08T00:53:49.917Z,11.65
2023-01-08T00:56:19.904Z,8.90
2023-01-08T00:58:49.652Z,10.32
2023-01-08T01:01:19.625Z,10.43
2023-01-08T01:03:49.687Z,8.63
2023-01-08T01:06:19.960Z,11.10
2023-01-08T01:08:49.729Z,9.35
2023-01-08T01:11:26.299Z,12.60
2023-01-08T01:13:57.856Z,9.90
2023-01-08T01:16:28.344Z,14.82
2023-01-08T01:18:58.441Z,13.73
2023-01-08T01:21:32.289Z,11.00
2023-01-08T01:24:05.294Z,11.13
2023-01-08T01:26:35.243Z,11.25
2023-01-08T01:29:05.706Z,9.82
2023-01-08T01:31:35.333Z,13.20
2023-01-08T01:34:05.474Z,15.43
2023-01-08T01:36:35.290Z,11.55
2023-01-08T01:39:04.878Z,12.75
2023-01-08T01:41:41.096Z,11.50
2023-01-08T01:44:44.748Z,11.25
2023-01-08T01:47:34.232Z,15.63
2023-01-08T01:50:49.031Z,12.10
2023-01-08T01:53:34.081Z,14.10
2023-01-08T01:56:05.503Z,11.57
2023-01-08T01:58:36.306Z,13.38
2023-01-08T02:01:10.138Z,18.27
2023-01-08T02:03:41.367Z,17.55
2023-01-08T02:06:37.752Z,15.00
2023-01-08T02:09:36.858Z,13.90
2023-01-08T02:12:25.545Z,14.02
2023-01-08T02:15:25.412Z,13.15
2023-01-08T02:18:13.270Z,14.70
2023-01-08T02:21:11.266Z,13.02
2023-01-08T02:23:57.458Z,12.48
2023-01-08T02:26:33.108Z,13.63
2023-01-08T02:29:19.559Z,13.68
2023-01-08T02:31:50.059Z,14.07
2023-01-08T02:34:19.953Z,16.90
2023-01-08T02:36:56.659Z,13.10
2023-01-08T02:39:55.452Z,14.68
2023-01-08T02:43:00.129Z,17.80
2023-01-08T02:45:52.813Z,13.82
2023-01-08T02:49:06.228Z,12.45
2023-01-08T02:51:53.442Z,14.45
2023-01-08T02:54:34.851Z,13.00
2023-01-08T02:57:15.118Z,16.30
2023-01-08T02:59:50.743Z,15.63
2023-01-08T03:02:21.131Z,16.95
2023-01-08T03:05:09.578Z,15.77
2023-01-08T03:07:40.217Z,14.83
2023-01-08T03:10:12.646Z,13.30
2023-01-08T03:13:11.931Z,15.38
2023-01-08T03:15:52.343Z,14.77
2023-01-08T03:18:39.442Z,16.10
2023-01-08T03:21:13.692Z,19.42
2023-01-08T03:23:48.119Z,15.15
2023-01-08T03:26:27.064Z,15.88
2023-01-08T03:28:58.161Z,20.48
2023-01-08T03:31:35.884Z,14.70
2023-01-08T03:34:08.301Z,18.77
2023-01-08T03:36:47.897Z,16.65
2023-01-08T03:39:38.618Z,20.10
2023-01-08T03:42:18.124Z,17.15
2023-01-08T03:44:48.393Z,16.27
2023-01-08T03:47:22.433Z,16.77
2023-01-08T03:49:57.310Z,16.25
2023-01-08T03:52:30.645Z,20.20
2023-01-08T03:55:00.111Z,23.50
2023-01-08T03:57:29.666Z,20.55
2023-01-08T03:59:58.377Z,20.05
2023-01-08T04:02:26.715Z,17.58
2023-01-08T04:04:54.968Z,17.60
2023-01-08T04:07:23.427Z,16.67
2023-01-08T04:09:51.803Z,15.85
2023-01-08T04:12:20.519Z,16.85
2023-01-08T04:14:48.656Z,19.27
2023-01-08T04:17:17.085Z,14.20
2023-01-08T04:19:45.897Z,15.82
2023-01-08T04:22:14.213Z,17.42
2023-01-08T04:24:42.341Z,16.33
2023-01-08T04:27:10.773Z,16.30
2023-01-08T04:29:40.391Z,16.15
2023-01-08T04:32:08.892Z,18.95
2023-01-08T04:34:37.321Z,15.02
2023-01-08T04:37:05.786Z,17.08
2023-01-08T04:39:34.176Z,16.88
2023-01-08T04:42:02.628Z,16.20
2023-01-08T04:44:31.313Z,15.07
2023-01-08T04:46:59.376Z,14.48
2023-01-08T04:49:27.766Z,15.25
2023-01-08T04:51:56.183Z,17.45
2023-01-08T04:54:24.623Z,15.13
2023-01-08T04:56:53.466Z,16.23
2023-01-08T04:59:21.556Z,17.65
2023-01-08T05:01:50.129Z,13.95
2023-01-08T05:04:18.404Z,16.45
2023-01-08T05:06:46.857Z,18.95
2023-01-08T05:09:15.274Z,17.70
2023-01-08T05:11:43.786Z,17.95
2023-01-08T05:14:13.074Z,16.33
2023-01-08T05:16:41.344Z,14.25
2023-01-08T05:19:09.957Z,14.50
2023-01-08T05:21:38.202Z,14.05
2023-01-08T05:24:07.103Z,13.88
2023-01-08T05:26:35.209Z,15.68
2023-01-08T05:29:03.795Z,16.70
2023-01-08T05:31:31.830Z,15.48
2023-01-08T05:34:00.910Z,14.95
2023-01-08T05:36:28.675Z,14.25
2023-01-08T05:38:57.406Z,14.43
2023-01-08T05:41:25.549Z,14.57
2023-01-08T05:43:54.296Z,13.68
2023-01-08T05:46:22.854Z,14.75
2023-01-08T05:48:50.807Z,14.68
2023-01-08T05:51:19.219Z,14.65
2023-01-08T05:53:47.653Z,14.13
2023-01-08T05:56:16.063Z,11.80
2023-01-08T05:58:44.529Z,12.10
2023-01-08T06:01:18.566Z,13.35
2023-01-08T06:03:47.647Z,13.02
2023-01-08T06:06:16.720Z,13.38
2023-01-08T06:08:45.370Z,11.18
2023-01-08T06:11:15.306Z,12.32
2023-01-08T06:13:44.677Z,12.50
2023-01-08T06:16:13.972Z,14.15
2023-01-08T06:18:44.217Z,12.93
2023-01-08T06:21:14.778Z,15.38
2023-01-08T06:23:44.404Z,13.20
2023-01-08T06:26:14.153Z,11.70
2023-01-08T06:28:43.992Z,11.40
2023-01-08T06:31:13.669Z,10.65
2023-01-08T06:33:43.487Z,13.15
2023-01-08T06:36:13.259Z,11.40
2023-01-08T06:38:43.189Z,12.88
2023-01-08T06:41:12.937Z,13.15
2023-01-08T06:43:42.713Z,18.90
2023-01-08T06:46:12.704Z,12.73
2023-01-08T06:48:42.681Z,12.57
2023-01-08T06:51:12.680Z,11.00
2023-01-08T06:53:42.554Z,10.30
2023-01-08T06:56:12.379Z,9.60
2023-01-08T06:58:42.279Z,12.88
2023-01-08T07:01:17.063Z,13.68
2023-01-08T07:03:46.895Z,11.43
2023-01-08T07:06:21.703Z,13.20
2023-01-08T07:08:50.013Z,11.27
2023-01-08T07:11:19.460Z,9.63
2023-01-08T07:13:47.882Z,7.93
2023-01-08T07:16:16.397Z,8.18
2023-01-08T07:18:44.945Z,10.20
2023-01-08T07:21:13.145Z,9.25
2023-01-08T07:23:42.073Z,10.00
2023-01-08T07:26:09.993Z,12.90
2023-01-08T07:28:38.376Z,11.30
2023-01-08T07:31:07.178Z,8.73
2023-01-08T07:33:36.646Z,10.40
2023-01-08T07:36:07.646Z,9.10
2023-01-08T07:38:35.233Z,9.18
2023-01-08T07:41:04.643Z,8.63
2023-01-08T07:43:32.027Z,10.07
2023-01-08T07:46:04.093Z,9.32
2023-01-08T07:48:34.755Z,14.63
2023-01-08T07:51:08.599Z,10.10
2023-01-08T07:53:38.708Z,9.77
2023-01-08T07:56:11.225Z,9.98
2023-01-08T07:58:41.363Z,10.40
2023-01-08T08:01:12.500Z,9.40
2023-01-08T08:03:43.044Z,9.15
2023-01-08T08:06:13.080Z,8.20
2023-01-08T08:08:42.945Z,12.18
2023-01-08T08:11:12.856Z,9.40
2023-01-08T08:13:44.991Z,8.98
2023-01-08T08:16:13.351Z,8.40
2023-01-08T08:18:43.481Z,7.95
2023-01-08T08:21:13.226Z,8.18
2023-01-08T08:23:42.962Z,8.80
2023-01-08T08:26:12.731Z,9.15
2023-01-08T08:28:42.560Z,7.78
2023-01-08T08:31:12.901Z,8.90
2023-01-08T08:33:42.850Z,10.30
2023-01-08T08:36:12.576Z,8.30
2023-01-08T08:38:42.337Z,9.23
2023-01-08T08:41:12.243Z,8.23
2023-01-08T08:43:41.993Z,7.18
2023-01-08T08:46:12.030Z,8.27
2023-01-08T08:48:41.725Z,7.80
2023-01-08T08:51:12.230Z,8.57
2023-01-08T08:53:41.677Z,7.85
2023-01-08T08:56:11.558Z,9.00
2023-01-08T08:58:45.338Z,7.68
2023-01-08T09:01:15.437Z,9.18
2023-01-08T09:03:42.854Z,9.45
2023-01-08T09:06:16.046Z,6.85
2023-01-08T09:08:46.116Z,7.30
2023-01-08T09:11:15.980Z,7.72
2023-01-08T09:13:44.328Z,6.40
2023-01-08T09:16:12.866Z,6.28
2023-01-08T09:18:41.171Z,7.15
2023-01-08T09:21:09.642Z,6.88
2023-01-08T09:23:38.894Z,7.32
2023-01-08T09:26:06.686Z,5.93
2023-01-08T09:28:34.862Z,7.43
2023-01-08T09:31:05.140Z,7.60
2023-01-08T09:33:34.752Z,7.65
2023-01-08T09:36:03.459Z,7.93
2023-01-08T09:38:31.770Z,7.85
2023-01-08T09:41:17.455Z,9.25
2023-01-08T09:43:53.887Z,8.05
2023-01-08T09:46:28.610Z,8.52
2023-01-08T09:49:08.117Z,9.35
2023-01-08T09:51:40.037Z,5.97
2023-01-08T09:54:17.762Z,9.75
2023-01-08T09:56:46.197Z,7.38
2023-01-08T09:59:19.273Z,6.32
2023-01-08T10:01:49.537Z,7.80
2023-01-08T10:04:29.371Z,9.02
2023-01-08T10:07:21.824Z,7.30
2023-01-08T10:09:54.282Z,7.57
2023-01-08T10:12:33.884Z,7.47
2023-01-08T10:15:14.163Z,8.98
2023-01-08T10:18:11.041Z,9.50
2023-01-08T10:20:41.161Z,8.27
2023-01-08T10:23:23.009Z,8.10
2023-01-08T10:25:59.091Z,7.65
2023-01-08T10:28:36.944Z,10.23
2023-01-08T10:31:16.665Z,8.25
2023-01-08T10:33:50.234Z,10.75
2023-01-08T10:36:27.613Z,9.23
2023-01-08T10:39:05.764Z,8.75
2023-01-08T10:41:40.075Z,8.80
2023-01-08T10:44:19.562Z,13.80
2023-01-08T10:46:59.867Z,8.75
2023-01-08T10:49:45.585Z,9.52
2023-01-08T10:52:36.323Z,10.65
2023-01-08T10:55:37.518Z,11.70
2023-01-08T10:58:10.523Z,11.90
2023-01-08T11:00:39.332Z,12.32
2023-01-08T11:03:31.937Z,12.48
2023-01-08T11:06:14.045Z,11.63
2023-01-08T11:08:59.379Z,11.20
2023-01-08T11:11:38.538Z,10.15
2023-01-08T11:14:35.409Z,11.45
2023-01-08T11:17:13.009Z,9.85
2023-01-08T11:19:43.122Z,17.48
2023-01-08T11:22:25.299Z,10.43
2023-01-08T11:24:55.813Z,12.88
2023-01-08T11:27:35.773Z,10.00
2023-01-08T11:30:24.681Z,14.13
2023-01-08T11:33:24.579Z,14.10
2023-01-08T11:36:17.913Z,11.95
2023-01-08T11:38:48.122Z,10.52
2023-01-08T11:41:38.553Z,11.95
2023-01-08T11:45:00.367Z,13.10
2023-01-08T11:48:25.378Z,13.23
2023-01-08T11:51:37.151Z,12.13
2023-01-08T11:54:49.626Z,16.25
2023-01-08T11:57:45.120Z,12.23
2023-01-08T12:00:24.125Z,12.02
2023-01-08T12:03:15.093Z,12.15
2023-01-08T12:06:12.248Z,11.68
2023-01-08T12:09:32.339Z,10.93
2023-01-08T12:12:27.548Z,12.77
2023-01-08T12:15:45.059Z,15.18
2023-01-08T12:18:48.711Z,11.82
2023-01-08T12:22:19.192Z,14.70
2023-01-08T12:25:35.687Z,11.05
2023-01-08T12:28:42.905Z,13.05
2023-01-08T12:32:07.484Z,11.45
2023-01-08T12:35:31.249Z,10.80
2023-01-08T12:38:29.185Z,17.27
2023-01-08T12:41:14.115Z,13.30
2023-01-08T12:44:06.456Z,11.43
2023-01-08T12:46:46.140Z,12.18
2023-01-08T12:49:55.205Z,10.98
2023-01-08T12:52:59.760Z,10.15
2023-01-08T12:56:10.019Z,9.45
2023-01-08T12:59:29.121Z,9.15
2023-01-08T13:02:16.028Z,11.02
2023-01-08T13:04:48.856Z,10.07
2023-01-08T13:07:32.540Z,11.73
2023-01-08T13:10:23.999Z,11.15
2023-01-08T13:12:55.533Z,12.35
2023-01-08T13:15:31.263Z,13.50
2023-01-08T13:18:19.141Z,13.60
2023-01-08T13:21:04.304Z,10.98
2023-01-08T13:23:36.093Z,11.10
2023-01-08T13:26:07.765Z,10.98
2023-01-08T13:28:37.759Z,12.38
2023-01-08T13:31:24.514Z,16.08
2023-01-08T13:33:55.333Z,14.52
2023-01-08T13:36:30.362Z,14.00
2023-01-08T13:39:33.874Z,10.68
2023-01-08T13:42:29.614Z,11.85
2023-01-08T13:45:05.219Z,12.65
2023-01-08T13:47:44.193Z,13.73
2023-01-08T13:50:26.552Z,11.50
2023-01-08T13:53:05.181Z,12.50
2023-01-08T13:55:45.851Z,13.60
2023-01-08T13:58:31.002Z,13.38
2023-01-08T14:01:04.318Z,14.82
2023-01-08T14:03:48.135Z,14.25
2023-01-08T14:06:28.429Z,13.40
2023-01-08T14:09:01.777Z,14.55
2023-01-08T14:11:49.179Z,12.95
2023-01-08T14:14:24.239Z,11.93
2023-01-08T14:16:55.600Z,16.95
2023-01-08T14:19:26.845Z,15.38
2023-01-08T14:22:04.172Z,17.42
2023-01-08T14:24:32.035Z,13.90
2023-01-08T14:27:01.990Z,14.88
2023-01-08T14:29:34.726Z,16.73
2023-01-08T14:32:03.237Z,13.25
2023-01-08T14:34:42.060Z,15.80
2023-01-08T14:37:16.459Z,16.80
2023-01-08T14:39:49.150Z,16.13
2023-01-08T14:42:44.466Z,16.60
2023-01-08T14:45:32.403Z,22.38
2023-01-08T14:48:15.385Z,16.90
2023-01-08T14:51:06.442Z,20.55
2023-01-08T14:53:50.690Z,20.15
2023-01-08T14:56:29.827Z,17.60
2023-01-08T14:59:06.828Z,19.15
2023-01-08T15:01:37.687Z,18.35
2023-01-08T15:04:20.165Z,19.38
2023-01-08T15:07:08.269Z,16.55
2023-01-08T15:09:38.361Z,19.23
2023-01-08T15:12:30.850Z,22.60
2023-01-08T15:15:12.758Z,21.65
2023-01-08T15:17:41.618Z,18.25
2023-01-08T15:20:29.491Z,20.30
2023-01-08T15:23:00.779Z,21.08
2023-01-08T15:25:31.639Z,50.05
2023-01-08T15:30:39.864Z,18.20
2023-01-08T15:33:25.253Z,19.98
2023-01-08T15:35:56.873Z,18.65
2023-01-08T15:38:27.031Z,20.05
2023-01-08T15:40:57.043Z,20.25
2023-01-08T15:43:27.166Z,20.27
2023-01-08T15:45:57.208Z,21.27
2023-01-08T15:48:27.216Z,18.73
2023-01-08T15:50:58.230Z,19.73
2023-01-08T15:53:28.441Z,17.77
2023-01-08T15:55:57.961Z,19.10
2023-01-08T15:58:28.022Z,22.60
2023-01-08T16:00:58.125Z,21.48
2023-01-08T16:03:30.523Z,16.73
2023-01-08T16:06:00.692Z,18.92
2023-01-08T16:08:30.736Z,16.58
2023-01-08T16:11:00.755Z,19.70
2023-01-08T16:13:30.842Z,17.90
2023-01-08T16:16:00.917Z,17.25
2023-01-08T16:18:31.127Z,18.88
2023-01-08T16:21:01.565Z,16.92
2023-01-08T16:23:29.632Z,16.40
2023-01-08T16:25:59.328Z,15.73
2023-01-08T16:28:29.239Z,14.38
2023-01-08T16:30:58.979Z,17.30
2023-01-08T16:33:29.170Z,16.77
2023-01-08T16:36:04.268Z,13.88
2023-01-08T16:38:34.009Z,17.38
2023-01-08T16:41:06.140Z,12.65
2023-01-08T16:43:41.469Z,13.82
2023-01-08T16:46:18.028Z,15.18
2023-01-08T16:48:48.779Z,14.35
2023-01-08T16:51:18.583Z,15.40
2023-01-08T16:53:47.605Z,12.27
2023-01-08T16:56:15.577Z,16.10
2023-01-08T16:58:44.157Z,13.82
2023-01-08T17:01:12.770Z,15.73
2023-01-08T17:03:42.609Z,12.52
2023-01-08T17:06:14.799Z,12.43
2023-01-08T17:08:43.316Z,17.00
2023-01-08T17:11:18.438Z,21.63
2023-01-08T17:13:49.606Z,15.13
2023-01-08T17:16:20.751Z,13.32
2023-01-08T17:18:50.517Z,13.20
2023-01-08T17:21:20.917Z,16.58
2023-01-08T17:23:50.729Z,14.43
2023-01-08T17:26:19.112Z,15.07
2023-01-08T17:28:47.615Z,13.25
2023-01-08T17:31:19.804Z,11.90
2023-01-08T17:33:50.558Z,14.95
2023-01-08T17:36:26.560Z,17.08
2023-01-08T17:38:56.670Z,12.82
2023-01-08T17:41:45.640Z,11.48
2023-01-08T17:44:14.717Z,11.73
2023-01-08T17:46:47.555Z,14.13
2023-01-08T17:49:18.107Z,13.35
2023-01-08T17:51:46.087Z,14.05
2023-01-08T17:54:17.254Z,13.40
2023-01-08T17:56:48.933Z,19.08
2023-01-08T17:59:20.112Z,17.73
2023-01-08T18:01:51.487Z,15.63
2023-01-08T18:04:21.565Z,16.08
2023-01-08T18:06:51.538Z,17.88
2023-01-08T18:09:21.428Z,18.98
2023-01-08T18:11:51.116Z,17.60
2023-01-08T18:14:22.298Z,16.48
2023-01-08T18:16:53.083Z,18.58
2023-01-08T18:19:23.234Z,18.73
2023-01-08T18:21:53.609Z,19.42
2023-01-08T18:24:23.292Z,20.88
2023-01-08T18:26:53.136Z,17.95
2023-01-08T18:29:23.090Z,21.08
2023-01-08T18:31:53.158Z,22.02
2023-01-08T18:34:22.990Z,21.40
2023-01-08T18:36:52.735Z,25.08
2023-01-08T18:39:22.677Z,26.63
2023-01-08T18:42:12.608Z,20.23
2023-01-08T18:44:41.416Z,18.73
2023-01-08T18:47:12.574Z,20.65
2023-01-08T18:49:41.967Z,17.55
2023-01-08T18:52:14.248Z,16.95
2023-01-08T18:54:43.479Z,17.63
2023-01-08T18:57:13.249Z,19.20
2023-01-08T18:59:43.256Z,20.75
2023-01-08T19:02:27.263Z,18.25
2023-01-08T19:04:54.894Z,16.45
2023-01-08T19:07:22.340Z,20.02
2023-01-08T19:09:49.912Z,18.83
2023-01-08T19:12:19.055Z,17.45
2023-01-08T19:14:47.724Z,18.02
2023-01-08T19:17:15.140Z,17.40
2023-01-08T19:19:43.514Z,21.35
2023-01-08T19:22:11.951Z,17.85
2023-01-08T19:24:40.633Z,23.52
2023-01-08T19:27:09.342Z,22.38
2023-01-08T19:29:37.940Z,18.85
2023-01-08T19:32:07.628Z,18.65
2023-01-08T19:34:35.013Z,22.50
2023-01-08T19:37:04.213Z,20.35
2023-01-08T19:39:31.864Z,20.92
2023-01-08T19:42:19.465Z,21.02
2023-01-08T19:44:48.873Z,21.73
2023-01-08T19:47:17.346Z,22.75
2023-01-08T19:49:49.201Z,21.10
2023-01-08T19:52:19.035Z,26.42
2023-01-08T19:54:48.759Z,24.35
2023-01-08T19:57:17.043Z,21.63
2023-01-08T19:59:45.407Z,25.10
2023-01-08T20:02:14.238Z,21.15
2023-01-08T20:04:45.711Z,20.80
2023-01-08T20:07:15.735Z,19.58
2023-01-08T20:12:17.936Z,22.15
2023-01-08T20:14:48.419Z,26.55
2023-01-08T20:17:19.137Z,27.55
2023-01-08T20:19:50.087Z,26.25
2023-01-08T20:22:19.321Z,26.58
2023-01-08T20:24:49.069Z,23.20
2023-01-08T20:27:18.865Z,27.42
2023-01-08T20:29:48.909Z,23.95
2023-01-08T20:32:21.061Z,25.25
2023-01-08T20:34:52.886Z,22.42
2023-01-08T20:37:21.461Z,22.83
2023-01-08T20:39:51.827Z,23.33
2023-01-08T20:42:33.589Z,26.67
2023-01-08T20:45:02.920Z,28.30
2023-01-08T20:47:35.773Z,24.55
2023-01-08T20:50:15.730Z,22.52
2023-01-08T20:52:49.390Z,22.75
2023-01-08T20:55:19.281Z,26.23
2023-01-08T20:57:49.175Z,35.58
2023-01-08T21:00:21.473Z,25.00
2023-01-08T21:02:51.582Z,27.02
2023-01-08T21:05:21.261Z,25.38
2023-01-08T21:07:51.199Z,26.85
2023-01-08T21:10:21.038Z,28.45
2023-01-08T21:12:50.721Z,28.13
2023-01-08T21:15:23.387Z,26.52
2023-01-08T21:17:52.401Z,22.80
2023-01-08T21:20:20.670Z,25.52
2023-01-08T21:22:48.812Z,26.80
2023-01-08T21:25:19.066Z,22.35
2023-01-08T21:27:49.110Z,24.83
2023-01-08T21:30:18.954Z,22.77
2023-01-08T21:32:48.647Z,22.90
2023-01-08T21:35:18.575Z,20.92
2023-01-08T21:37:48.294Z,24.88
2023-01-08T21:40:18.783Z,25.52
2023-01-08T21:43:07.592Z,21.50
2023-01-08T21:45:36.959Z,23.60
2023-01-08T21:48:07.040Z,20.45
2023-01-08T21:50:34.348Z,20.20
2023-01-08T21:53:21.217Z,22.05
2023-01-08T21:55:50.917Z,23.70
2023-01-08T21:58:20.852Z,19.35
2023-01-08T22:00:50.477Z,20.60
2023-01-08T22:03:19.335Z,18.98
2023-01-08T22:06:04.499Z,20.08
2023-01-08T22:08:35.571Z,24.90
2023-01-08T22:11:09.848Z,20.85
2023-01-08T22:13:39.478Z,21.10
2023-01-08T22:16:10.692Z,18.98
2023-01-08T22:18:40.026Z,18.15
2023-01-08T22:21:13.256Z,22.02
2023-01-08T22:23:43.430Z,18.88
2023-01-08T22:26:14.487Z,24.02
2023-01-08T22:28:44.004Z,21.48
2023-01-08T22:31:16.493Z,15.75
2023-01-08T22:33:46.399Z,20.25
2023-01-08T22:36:15.189Z,17.73
2023-01-08T22:38:43.222Z,19.40
2023-01-08T22:41:22.596Z,21.45
2023-01-08T22:43:56.822Z,21.00
2023-01-08T22:46:28.544Z,18.00
2023-01-08T22:48:57.084Z,19.70
2023-01-08T22:51:27.537Z,17.75
2023-01-08T22:54:01.169Z,16.63
2023-01-08T22:56:28.756Z,18.30
2023-01-08T22:58:58.833Z,19.90
2023-01-08T23:01:29.014Z,18.70
2023-01-08T23:04:02.030Z,19.17
2023-01-08T23:06:32.424Z,18.48
2023-01-08T23:09:01.539Z,18.45
2023-01-08T23:11:33.163Z,18.13
2023-01-08T23:14:01.830Z,17.33
2023-01-08T23:16:31.628Z,15.05
2023-01-08T23:19:01.945Z,15.32
2023-01-08T23:21:31.791Z,18.75
2023-01-08T23:24:01.418Z,19.67
2023-01-08T23:26:31.334Z,20.25
2023-01-08T23:29:01.190Z,21.23
2023-01-08T23:31:32.446Z,22.15
2023-01-08T23:34:01.720Z,22.70
2023-01-08T23:36:32.129Z,19.85
2023-01-08T23:39:02.240Z,21.10
2023-01-08T23:41:34.838Z,23.95
2023-01-08T23:44:12.089Z,23.05
2023-01-08T23:46:40.648Z,21.77
2023-01-08T23:49:10.794Z,19.83
2023-01-08T23:51:42.322Z,22.23
2023-01-08T23:54:13.683Z,19.20
2023-01-08T23:56:43.902Z,19.67
2023-01-08T23:59:14.121Z,21.02
